Time;durP1;ratioP1;P1;durP2;ratioP2;P2;SDS_P1;SDS_P2;PMS_P1;PMS_P2;Temp;Humidity;BMP_temperature;BMP_pressure;BME280_temperature;BME280_humidity;BME280_pressure;Samples;Min_cycle;Max_cycle;Signal;HPM_P1;HPM_P2
2021/05/24 00:02:13;;;;;;;2.47;2.03;;;;;;;10.58;79.35;101121.78;6194443;28;20265;-71
2021/05/24 00:05:22;;;;;;;2.72;1.67;;;;;;;10.50;78.42;101119.28;6193642;28;20309;-70
2021/05/24 00:08:25;;;;;;;5.43;1.50;;;;;;;10.35;79.71;101122.19;6194377;28;20187;-71
2021/05/24 00:11:30;;;;;;;1.60;1.50;;;;;;;10.31;79.39;101125.56;6193675;28;20215;-71
2021/05/24 00:14:37;;;;;;;1.77;1.40;;;;;;;10.26;79.70;101122.63;6193685;28;20187;-70
2021/05/24 00:17:41;;;;;;;1.15;1.10;;;;;;;10.27;79.81;101124.31;6194108;28;20218;-71
2021/05/24 00:20:49;;;;;;;2.70;1.40;;;;;;;10.24;79.21;101125.56;6192880;28;20214;-71
2021/05/24 00:23:53;;;;;;;1.50;1.50;;;;;;;10.13;80.38;101128.06;6192455;28;20332;-71
2021/05/24 00:26:56;;;;;;;2.35;1.58;;;;;;;10.03;80.65;101123.81;6192705;28;20187;-71
2021/05/24 00:30:00;;;;;;;2.03;1.60;;;;;;;9.88;81.69;101120.44;6192283;28;20187;-71
2021/05/24 00:33:08;;;;;;;3.30;1.50;;;;;;;9.96;80.50;101125.66;6192241;28;20187;-71
2021/05/24 00:36:13;;;;;;;1.70;1.60;;;;;;;10.12;80.91;101131.81;6192164;28;20186;-71
2021/05/24 00:39:21;;;;;;;;;;;;;;;10.19;80.46;101144.44;6191615;28;20214;-71
2021/05/24 00:42:25;;;;;;;;;;;;;;;10.27;79.52;101141.50;6193450;28;19940;-71
2021/05/24 00:45:28;;;;;;;;;;;;;;;10.27;79.94;101140.69;6192283;28;20409;-71
2021/05/24 00:48:32;;;;;;;6.25;1.70;;;;;;;9.65;80.25;101054.56;6193027;28;19925;-71
2021/05/24 00:51:36;;;;;;;;;;;;;;;10.23;80.54;101148.41;6193401;28;20268;-71
2021/05/24 00:54:39;;;;;;;;;;;;;;;10.18;80.48;101155.53;6192198;28;20206;-71
2021/05/24 00:57:44;;;;;;;;;;;;;;;10.14;80.70;101157.00;6193287;28;19918;-70
2021/05/24 01:00:48;;;;;;;;;;;;;;;10.21;79.75;101157.84;6193616;28;19918;-71
2021/05/24 01:03:52;;;;;;;;;;;;;;;10.11;81.29;101151.94;6213205;23;20081;-70
2021/05/24 01:06:57;;;;;;;;;;;;;;;10.08;81.29;101148.56;6216323;28;19918;-70
2021/05/24 01:10:00;;;;;;;;;;;;;;;10.24;81.09;101157.44;6216566;28;19924;-70
2021/05/24 01:13:06;;;;;;;;;;;;;;;10.26;80.73;101166.25;6216334;28;19924;-71
2021/05/24 01:16:11;;;;;;;;;;;;;;;10.34;80.51;101163.34;6216603;28;20071;-70
2021/05/24 01:19:14;;;;;;;;;;;;;;;10.29;80.39;101165.84;6215204;28;20205;-70
2021/05/24 01:22:20;;;;;;;;;;;;;;;10.27;79.61;101167.94;6215126;28;19953;-70
2021/05/24 01:25:24;;;;;;;2.63;1.58;;;;;;;10.31;80.03;101175.50;6215462;28;20182;-70
2021/05/24 01:28:28;;;;;;;1.60;1.55;;;;;;;10.39;80.13;101177.19;6206469;28;20212;-70
2021/05/24 01:31:32;;;;;;;2.97;1.50;;;;;;;10.36;80.10;101172.13;6197479;28;20308;-70
2021/05/24 01:34:36;;;;;;;2.65;1.50;;;;;;;10.48;79.76;101170.47;6214861;28;20517;-70
2021/05/24 01:37:41;;;;;;;1.67;1.58;;;;;;;10.26;80.20;101160.81;6214211;28;20406;-70
2021/05/24 01:40:46;;;;;;;1.80;1.70;;;;;;;10.26;81.36;101171.72;6213861;28;20226;-70
2021/05/24 01:43:50;;;;;;;4.22;1.33;;;;;;;10.28;80.77;101185.97;6214811;28;20224;-70
2021/05/24 01:46:54;;;;;;;1.75;1.63;;;;;;;10.08;81.41;101185.91;6214940;28;20247;-70
2021/05/24 01:49:58;;;;;;;1.30;1.30;;;;;;;9.92;81.47;101154.41;6213806;28;20201;-70
2021/05/24 01:53:03;;;;;;;1.95;1.45;;;;;;;10.16;81.63;101171.28;6214280;28;20210;-70
2021/05/24 01:56:07;;;;;;;1.70;1.60;;;;;;;10.24;81.30;101184.72;6214303;28;20458;-71
2021/05/24 01:59:13;;;;;;;2.50;1.50;;;;;;;10.33;81.08;101197.09;6213805;28;20186;-71
2021/05/24 02:02:18;;;;;;;1.60;1.55;;;;;;;10.29;81.41;101204.03;6213829;28;20213;-71
2021/05/24 02:05:24;;;;;;;2.20;1.40;;;;;;;10.28;81.61;101202.34;6213706;28;20265;-71
2021/05/24 02:08:29;;;;;;;2.20;1.40;;;;;;;10.36;80.91;101194.81;6213682;28;20426;-71
2021/05/24 02:11:33;;;;;;;1.50;1.40;;;;;;;10.19;81.33;101203.59;6214505;28;20241;-71
2021/05/24 02:14:37;;;;;;;1.58;1.50;;;;;;;10.30;81.14;101203.81;6213991;28;20272;-71
2021/05/24 02:17:40;;;;;;;1.50;1.40;;;;;;;10.21;81.61;101207.78;6214759;28;20186;-71
2021/05/24 02:20:44;;;;;;;1.45;1.40;;;;;;;10.24;81.00;101212.84;6214429;28;20186;-71
2021/05/24 02:23:49;;;;;;;4.15;1.50;;;;;;;10.27;80.53;101217.03;6213760;28;20469;-70
2021/05/24 02:26:52;;;;;;;1.50;1.40;;;;;;;10.11;81.49;101212.75;6213427;28;20436;-70
2021/05/24 02:29:56;;;;;;;1.77;1.67;;;;;;;10.15;81.23;101213.19;6214292;28;20225;-70
2021/05/24 02:33:00;;;;;;;1.30;1.30;;;;;;;9.97;82.30;101205.56;6214189;28;20222;-70
2021/05/24 02:36:04;;;;;;;1.50;1.40;;;;;;;10.00;82.74;101211.47;6213957;28;20226;-70
2021/05/24 02:39:09;;;;;;;1.10;1.10;;;;;;;10.11;81.95;101218.22;6212886;28;20376;-70
2021/05/24 02:42:13;;;;;;;1.55;1.48;;;;;;;10.08;81.56;101208.56;6214206;28;20213;-70
2021/05/24 02:45:18;;;;;;;1.90;1.23;;;;;;;10.12;81.34;101224.50;6212696;28;20193;-70
2021/05/24 02:48:22;;;;;;;1.40;1.30;;;;;;;10.14;80.61;101222.44;6213741;28;20194;-70
2021/05/24 02:51:26;;;;;;;4.57;1.20;;;;;;;9.94;81.39;101225.88;6211736;28;20499;-70
2021/05/24 02:54:31;;;;;;;1.27;1.10;;;;;;;10.04;80.45;101229.06;6204381;28;20233;-70
2021/05/24 02:57:35;;;;;;;2.00;1.27;;;;;;;9.92;81.77;101233.44;6212633;28;20186;-70
2021/05/24 03:00:38;;;;;;;3.45;1.52;;;;;;;9.99;80.85;101237.03;6213667;28;20198;-70
2021/05/24 03:03:42;;;;;;;1.42;1.42;;;;;;;9.93;81.49;101250.63;6213117;28;20226;-70
2021/05/24 03:06:46;;;;;;;4.20;1.42;;;;;;;10.09;80.91;101259.28;6212309;28;20209;-70
2021/05/24 03:09:51;;;;;;;1.45;1.08;;;;;;;10.03;79.53;101265.56;6213593;28;20186;-70
2021/05/24 03:12:55;;;;;;;1.40;1.30;;;;;;;10.11;79.83;101267.28;6212306;28;20242;-70
2021/05/24 03:15:58;;;;;;;1.40;1.30;;;;;;;10.16;79.34;101263.97;6211330;28;20269;-70
2021/05/24 03:19:02;;;;;;;1.33;1.23;;;;;;;10.11;79.75;101269.16;6213709;28;20264;-70
2021/05/24 03:22:06;;;;;;;1.70;1.38;;;;;;;10.05;80.80;101268.94;6213554;28;20193;-70
2021/05/24 03:25:13;;;;;;;1.38;1.25;;;;;;;10.06;79.65;101259.72;6212250;28;20374;-70
2021/05/24 03:28:18;;;;;;;1.15;1.13;;;;;;;10.05;80.32;101279.84;6212157;28;20375;-70
2021/05/24 03:31:22;;;;;;;1.30;1.30;;;;;;;10.09;80.56;101286.56;6213239;28;20186;-71
2021/05/24 03:34:26;;;;;;;2.50;1.30;;;;;;;10.06;80.71;101287.00;6212170;28;20186;-70
2021/05/24 03:37:30;;;;;;;1.00;1.00;;;;;;;10.05;79.23;101279.84;6205735;28;20186;-70
2021/05/24 03:40:35;;;;;;;0.90;0.90;;;;;;;10.16;79.42;101296.69;6212878;28;20193;-70
2021/05/24 03:43:42;;;;;;;1.13;1.10;;;;;;;10.12;80.16;101284.50;6213281;28;20190;-70
2021/05/24 03:46:46;;;;;;;1.08;1.08;;;;;;;10.33;79.53;101300.75;6211964;28;20243;-71
2021/05/24 03:49:50;;;;;;;1.02;1.02;;;;;;;10.41;79.43;101306.00;6211941;28;20473;-70
2021/05/24 03:52:53;;;;;;;1.48;1.20;;;;;;;10.42;79.06;101292.19;6212848;28;20211;-70
2021/05/24 03:55:58;;;;;;;1.17;1.17;;;;;;;10.57;79.04;101305.66;6211814;28;20478;-70
2021/05/24 03:59:03;;;;;;;1.20;1.10;;;;;;;10.41;78.68;101312.31;6212166;28;20233;-70
2021/05/24 04:02:07;;;;;;;1.17;1.17;;;;;;;10.40;78.17;101318.00;6210912;28;20540;-70
2021/05/24 04:05:17;;;;;;;1.30;1.20;;;;;;;10.35;77.74;101315.03;6215868;28;20241;-70
2021/05/24 04:08:20;;;;;;;1.63;1.20;;;;;;;10.36;77.81;101313.97;6216820;28;20202;-70
2021/05/24 04:11:25;;;;;;;1.13;1.10;;;;;;;10.25;77.94;101317.28;6217553;28;20225;-71
2021/05/24 04:14:29;;;;;;;1.10;1.10;;;;;;;10.23;78.02;101317.50;6209753;28;20214;-70
2021/05/24 04:17:37;;;;;;;1.30;1.30;;;;;;;10.14;78.44;101320.59;6217157;28;20241;-70
2021/05/24 04:20:41;;;;;;;2.20;1.98;;;;;;;10.18;78.14;101316.41;6217231;28;20233;-70
2021/05/24 04:23:45;;;;;;;2.53;2.42;;;;;;;10.32;78.48;101323.63;6217015;28;20229;-70
2021/05/24 04:26:50;;;;;;;3.72;3.17;;;;;;;10.23;78.60;101330.28;6217123;28;20219;-70
2021/05/24 04:29:53;;;;;;;1.83;1.73;;;;;;;10.16;78.26;101329.41;6217067;28;20193;-70
2021/05/24 04:32:57;;;;;;;3.30;3.10;;;;;;;10.15;79.53;101327.72;6215578;28;20524;-70
2021/05/24 04:36:01;;;;;;;3.83;3.72;;;;;;;10.23;78.92;101330.28;6216506;28;20187;-70
2021/05/24 04:39:05;;;;;;;6.15;5.60;;;;;;;10.01;79.79;101332.25;6215817;28;20198;-70
2021/05/24 04:42:11;;;;;;;3.08;2.88;;;;;;;10.08;79.09;101331.25;6215603;28;20552;-71
2021/05/24 04:45:15;;;;;;;4.13;3.63;;;;;;;10.16;79.62;101334.88;6214742;28;20497;-70
2021/05/24 04:48:19;;;;;;;3.28;2.83;;;;;;;10.28;78.69;101349.59;6216628;28;20190;-71
2021/05/24 04:51:23;;;;;;;3.03;1.60;;;;;;;10.22;78.16;101344.97;6216605;28;20186;-71
2021/05/24 04:54:27;;;;;;;1.65;1.08;;;;;;;10.13;77.96;101340.72;6215139;28;20280;-71
2021/05/24 04:57:32;;;;;;;1.63;1.23;;;;;;;10.22;78.30;101355.88;6207942;28;20208;-71
2021/05/24 05:00:37;;;;;;;2.40;1.58;;;;;;;10.21;78.98;101365.94;6215860;28;20225;-70
2021/05/24 05:03:40;;;;;;;1.58;1.45;;;;;;;10.26;78.80;101365.31;6215011;28;20394;-69
2021/05/24 05:06:44;;;;;;;1.50;1.40;;;;;;;10.30;78.33;101348.34;6197818;28;20386;-70
2021/05/24 05:09:48;;;;;;;2.45;1.25;;;;;;;10.38;77.78;101356.38;6215099;28;20186;-70
2021/05/24 05:12:53;;;;;;;2.90;2.03;;;;;;;10.46;78.04;101363.53;6214730;28;20441;-70
2021/05/24 05:15:56;;;;;;;1.58;1.25;;;;;;;10.81;76.85;101373.31;6215233;28;20225;-70
2021/05/24 05:19:00;;;;;;;1.60;1.60;;;;;;;10.73;76.42;101370.78;6215822;28;20186;-70
2021/05/24 05:22:04;;;;;;;2.30;1.52;;;;;;;10.63;76.75;101367.59;6214417;28;20186;-70
2021/05/24 05:25:09;;;;;;;1.23;1.23;;;;;;;10.72;76.71;101369.09;6215736;28;20232;-70
2021/05/24 05:28:15;;;;;;;2.33;1.60;;;;;;;10.78;76.05;101370.16;6215862;28;20193;-70
2021/05/24 05:31:19;;;;;;;1.42;1.40;;;;;;;10.83;76.52;101360.31;6214397;28;20241;-71
2021/05/24 05:34:22;;;;;;;1.23;1.23;;;;;;;10.75;75.74;101371.41;6215705;28;20278;-70
2021/05/24 05:37:27;;;;;;;1.38;1.25;;;;;;;10.99;75.30;101376.28;6214233;28;20265;-71
2021/05/24 05:40:32;;;;;;;1.42;1.20;;;;;;;11.18;74.33;101386.44;6214629;28;20186;-71
2021/05/24 05:43:37;;;;;;;1.60;1.50;;;;;;;11.26;74.00;101393.59;6215136;28;20257;-71
2021/05/24 05:46:40;;;;;;;1.40;1.40;;;;;;;11.19;74.52;101387.28;6215456;28;20218;-70
2021/05/24 05:49:48;;;;;;;2.10;2.00;;;;;;;11.24;73.73;101401.16;6214338;28;20249;-71
2021/05/24 05:52:52;;;;;;;1.70;1.70;;;;;;;11.47;74.44;101406.22;6215539;28;20285;-71
2021/05/24 05:55:55;;;;;;;1.48;1.38;;;;;;;11.46;73.41;101415.44;6215164;28;20186;-71
2021/05/24 05:59:00;;;;;;;2.30;1.40;;;;;;;11.63;73.77;101416.75;6213686;28;20524;-71
2021/05/24 06:02:04;;;;;;;1.70;1.60;;;;;;;11.60;72.13;101428.09;6213821;28;20193;-70
2021/05/24 06:05:10;;;;;;;2.05;1.55;;;;;;;11.55;73.12;101433.34;6213570;28;20417;-72
2021/05/24 06:08:15;;;;;;;1.70;1.60;;;;;;;11.57;72.00;101433.97;6214317;28;20186;-71
2021/05/24 06:11:20;;;;;;;3.90;2.03;;;;;;;11.52;72.20;101437.34;6214770;28;20186;-71
2021/05/24 06:14:25;;;;;;;1.60;1.48;;;;;;;11.42;72.18;101441.53;6213905;28;20520;-71
2021/05/24 06:17:29;;;;;;;2.75;1.80;;;;;;;11.46;72.15;101443.63;6205414;28;20527;-72
2021/05/24 06:20:33;;;;;;;1.70;1.60;;;;;;;11.50;71.77;101450.38;6213277;28;20480;-71
2021/05/24 06:23:37;;;;;;;1.63;1.50;;;;;;;11.60;72.09;101460.88;6214281;28;20285;-71
2021/05/24 06:26:40;;;;;;;1.50;1.50;;;;;;;11.71;71.45;101457.56;6213038;28;20218;-71
2021/05/24 06:29:45;;;;;;;5.70;1.75;;;;;;;11.84;70.50;101471.22;6212301;28;20190;-71
2021/05/24 06:32:49;;;;;;;1.77;1.73;;;;;;;11.66;71.94;101476.44;6213086;28;20418;-71
2021/05/24 06:35:52;;;;;;;4.13;1.73;;;;;;;11.79;70.67;101477.31;6214358;28;20186;-71
2021/05/24 06:38:56;;;;;;;1.80;1.70;;;;;;;11.84;70.68;101473.97;6214131;28;20182;-72
2021/05/24 06:42:00;;;;;;;1.73;1.70;;;;;;;11.95;70.64;101476.06;6214286;28;20260;-71
2021/05/24 06:45:06;;;;;;;2.00;1.70;;;;;;;12.04;69.64;101480.28;6213975;28;20197;-71
2021/05/24 06:48:17;;;;;;;2.55;1.63;;;;;;;12.08;69.63;101487.00;6213937;28;20218;-72
2021/05/24 06:51:21;;;;;;;1.60;1.60;;;;;;;12.20;69.74;101490.78;6214085;28;20186;-72
2021/05/24 06:54:24;;;;;;;1.85;1.75;;;;;;;12.14;69.83;101480.72;6213957;28;20214;-71
2021/05/24 06:57:28;;;;;;;1.83;1.80;;;;;;;11.98;70.80;101497.53;6206508;28;20186;-70
2021/05/24 07:00:34;;;;;;;1.77;1.63;;;;;;;12.11;70.15;101492.06;6213907;28;20225;-72
2021/05/24 07:03:37;;;;;;;5.22;1.88;;;;;;;12.03;69.95;101505.94;6212646;28;20483;-70
2021/05/24 07:06:41;;;;;;;2.50;1.50;;;;;;;12.00;71.27;101500.91;6213486;28;20209;-70
2021/05/24 07:09:45;;;;;;;13.27;2.05;;;;;;;12.15;70.08;101508.88;6213437;28;20186;-70
2021/05/24 07:12:48;;;;;;;4.82;2.25;;;;;;;12.12;70.48;101499.19;6213554;28;20186;-70
2021/05/24 07:15:53;;;;;;;4.68;1.80;;;;;;;12.11;71.02;101519.41;6213276;28;20194;-70
2021/05/24 07:18:57;;;;;;;3.15;1.60;;;;;;;12.21;69.58;101514.38;6212253;28;20226;-70
2021/05/24 07:22:00;;;;;;;1.63;1.40;;;;;;;12.01;69.89;101502.59;6212301;28;20186;-70
2021/05/24 07:25:06;;;;;;;1.60;1.50;;;;;;;12.04;69.83;101496.69;6212084;28;20384;-70
2021/05/24 07:28:10;;;;;;;1.85;1.75;;;;;;;12.16;70.00;101522.38;6213537;28;20186;-70
2021/05/24 07:31:15;;;;;;;4.80;1.70;;;;;;;12.36;70.97;101523.19;6213700;28;20217;-70
2021/05/24 07:34:19;;;;;;;2.25;1.80;;;;;;;12.54;70.21;101520.63;6212091;28;20445;-70
2021/05/24 07:37:23;;;;;;;1.92;1.75;;;;;;;12.70;70.00;101523.97;6212239;28;20394;-71
2021/05/24 07:40:27;;;;;;;1.80;1.77;;;;;;;12.66;69.03;101522.72;6216658;28;20190;-71
2021/05/24 07:43:30;;;;;;;1.90;1.80;;;;;;;12.76;69.31;101531.34;6216918;28;20197;-71
2021/05/24 07:46:35;;;;;;;1.80;1.70;;;;;;;12.77;68.72;101531.13;6218210;28;20193;-71
2021/05/24 07:49:39;;;;;;;1.50;1.50;;;;;;;12.79;69.32;101533.66;6217809;28;20193;-71
2021/05/24 07:52:43;;;;;;;4.68;2.03;;;;;;;13.04;69.06;101534.63;6218201;28;20339;-71
2021/05/24 07:55:46;;;;;;;2.03;1.90;;;;;;;13.12;67.90;101539.91;6216528;28;20248;-71
2021/05/24 07:58:50;;;;;;;1.90;1.80;;;;;;;13.06;68.12;101543.47;6218046;28;20186;-71
2021/05/24 08:01:54;;;;;;;2.58;1.75;;;;;;;13.18;67.56;101528.91;6217738;28;20194;-71
2021/05/24 08:04:58;;;;;;;1.50;1.50;;;;;;;13.18;67.74;101539.00;6217320;28;20234;-71
2021/05/24 08:08:01;;;;;;;1.98;1.58;;;;;;;13.16;68.36;101541.97;6217714;28;20225;-71
2021/05/24 08:11:06;;;;;;;1.73;1.67;;;;;;;13.29;67.50;101546.56;6216272;28;20194;-71
2021/05/24 08:14:14;;;;;;;1.67;1.58;;;;;;;13.22;67.63;101548.50;6217212;28;20240;-71
2021/05/24 08:17:19;;;;;;;2.60;1.63;;;;;;;13.34;66.83;101549.50;6217249;28;20217;-71
2021/05/24 08:20:22;;;;;;;2.00;1.90;;;;;;;13.40;67.15;101551.38;6216728;28;20186;-71
2021/05/24 08:23:26;;;;;;;3.13;1.80;;;;;;;13.51;66.85;101552.56;6216059;28;20208;-71
2021/05/24 08:26:30;;;;;;;2.00;1.90;;;;;;;13.39;66.99;101551.56;6217785;28;20380;-72
2021/05/24 08:29:35;;;;;;;2.17;1.58;;;;;;;13.49;66.76;101551.94;6217047;28;20197;-72
2021/05/24 08:32:40;;;;;;;4.20;2.10;;;;;;;13.53;67.30;101570.47;6215912;28;20186;-69
2021/05/24 08:35:43;;;;;;;2.95;1.92;;;;;;;13.57;66.89;101571.72;6215431;28;20235;-69
2021/05/24 08:38:47;;;;;;;4.75;1.98;;;;;;;13.66;66.36;101562.16;6215670;28;20385;-70
2021/05/24 08:41:52;;;;;;;1.70;1.60;;;;;;;13.14;66.88;101532.28;6216030;28;20186;-70
2021/05/24 08:44:56;;;;;;;4.10;1.80;;;;;;;13.41;67.40;101571.38;6217026;28;20257;-70
2021/05/24 08:48:01;;;;;;;1.85;1.75;;;;;;;13.31;67.33;101577.31;6216843;28;20249;-69
2021/05/24 08:51:06;;;;;;;1.80;1.80;;;;;;;13.23;67.56;101590.41;6215843;28;20190;-70
2021/05/24 08:54:10;;;;;;;3.30;2.03;;;;;;;13.26;68.18;101590.84;6216471;28;20249;-69
2021/05/24 08:57:13;;;;;;;1.95;1.85;;;;;;;13.22;67.63;101578.63;6215198;28;20270;-70
2021/05/24 09:00:20;;;;;;;2.33;2.00;;;;;;;13.27;68.31;101592.53;6216006;28;20213;-71
2021/05/24 09:03:33;;;;;;;2.30;2.08;;;;;;;13.21;68.32;101604.34;6215898;28;20266;-70
2021/05/24 09:06:39;;;;;;;2.08;1.85;;;;;;;13.29;67.97;101595.88;6216523;28;20259;-70
2021/05/24 09:10:00;;;;;;;4.10;2.05;;;;;;;13.39;67.74;101596.28;6214917;28;20474;-70
2021/05/24 09:13:12;;;;;;;2.00;1.90;;;;;;;13.45;68.13;101600.91;6215340;28;20197;-70
2021/05/24 09:16:26;;;;;;;1.77;1.77;;;;;;;13.42;67.74;101595.00;6215138;28;20210;-71
2021/05/24 09:19:35;;;;;;;2.05;1.95;;;;;;;13.32;67.90;101598.19;6208283;28;20186;-72
2021/05/24 09:22:39;;;;;;;3.83;1.80;;;;;;;13.29;67.29;101604.13;6216304;28;20192;-70
2021/05/24 09:25:55;;;;;;;2.67;1.67;;;;;;;13.32;67.80;101603.69;6215289;28;20190;-70
2021/05/24 09:29:06;;;;;;;2.13;1.75;;;;;;;13.36;67.79;101612.28;6215230;28;20225;-70
2021/05/24 09:32:15;;;;;;;1.73;1.65;;;;;;;13.52;66.59;101601.69;6215676;28;20186;-69
2021/05/24 09:35:20;;;;;;;1.85;1.75;;;;;;;13.63;66.58;101603.75;6215764;28;20315;-70
2021/05/24 09:38:25;;;;;;;2.20;2.00;;;;;;;13.49;67.22;101607.63;6215927;28;20186;-71
2021/05/24 09:41:30;;;;;;;1.67;1.50;;;;;;;13.55;67.48;101612.22;6215687;28;20221;-70
2021/05/24 09:44:34;;;;;;;1.92;1.80;;;;;;;13.58;67.10;101625.50;6214306;28;20496;-70
2021/05/24 09:47:39;;;;;;;1.83;1.73;;;;;;;13.72;66.34;101624.38;6214208;28;20185;-69
2021/05/24 09:50:54;;;;;;;1.60;1.50;;;;;;;13.76;66.95;101625.59;6214432;28;20186;-69
2021/05/24 09:54:01;;;;;;;1.90;1.90;;;;;;;13.93;65.90;101625.94;6213913;28;20528;-71
2021/05/24 09:57:10;;;;;;;8.32;3.67;;;;;;;14.15;65.55;101634.69;6214346;28;20194;-70
2021/05/24 10:00:17;;;;;;;4.07;2.60;;;;;;;14.22;64.97;101636.34;6215135;28;20186;-70
2021/05/24 10:03:24;;;;;;;1.98;1.88;;;;;;;14.04;64.92;101632.66;6213569;28;20591;-69
2021/05/24 10:06:28;;;;;;;3.10;1.98;;;;;;;13.95;65.00;101639.44;6214598;28;20258;-70
2021/05/24 10:09:34;;;;;;;4.78;2.10;;;;;;;13.92;65.44;101639.91;6213625;28;20465;-70
2021/05/24 10:12:38;;;;;;;2.13;2.00;;;;;;;14.02;64.96;101656.72;6213677;28;20500;-70
2021/05/24 10:15:43;;;;;;;2.72;2.63;;;;;;;14.19;65.19;101663.38;6214659;28;20256;-69
2021/05/24 10:18:47;;;;;;;5.97;2.60;;;;;;;14.17;64.48;101660.00;6214814;28;20197;-71
2021/05/24 10:21:52;;;;;;;3.15;2.85;;;;;;;14.11;64.34;101655.38;6213564;28;20403;-71
2021/05/24 10:24:57;;;;;;;2.33;2.22;;;;;;;14.08;65.34;101666.81;6213454;28;20245;-71
2021/05/24 10:28:03;;;;;;;3.55;2.05;;;;;;;14.23;64.70;101664.59;6213384;28;20379;-71
2021/05/24 10:31:18;;;;;;;2.22;2.10;;;;;;;14.18;64.36;101650.69;6214305;28;20186;-71
2021/05/24 10:34:24;;;;;;;2.45;2.40;;;;;;;14.18;64.66;101667.16;6213128;28;20425;-69
2021/05/24 10:37:39;;;;;;;2.25;2.15;;;;;;;14.33;64.28;101659.50;6205241;28;20425;-70
2021/05/24 10:40:44;;;;;;;2.85;2.70;;;;;;;14.26;65.16;101655.91;6213765;28;20254;-70
2021/05/24 10:43:52;;;;;;;2.45;2.35;;;;;;;14.40;64.87;101671.28;6214036;28;20186;-71
2021/05/24 10:46:56;;;;;;;2.00;1.90;;;;;;;14.53;64.41;101671.19;6214241;28;20270;-70
2021/05/24 10:50:03;;;;;;;3.88;2.00;;;;;;;14.57;64.33;101682.56;6212816;28;20524;-70
2021/05/24 10:53:23;;;;;;;2.45;2.00;;;;;;;14.51;64.37;101673.28;6212807;28;20477;-70
2021/05/24 10:56:27;;;;;;;2.00;1.90;;;;;;;14.41;64.38;101679.28;6213984;28;20221;-70
2021/05/24 11:00:01;;;;;;;2.30;2.20;;;;;;;14.52;65.15;101683.22;6213877;28;20248;-70
2021/05/24 11:03:08;;;;;;;2.03;1.85;;;;;;;14.71;65.18;101690.50;6212487;28;20202;-70
2021/05/24 11:06:15;;;;;;;2.78;1.58;;;;;;;14.84;65.38;101689.53;6214080;28;20197;-70
2021/05/24 11:09:39;;;;;;;5.80;2.30;;;;;;;14.94;64.30;101678.88;6196459;28;20202;-70
2021/05/24 11:12:44;;;;;;;1.98;1.50;;;;;;;15.07;64.03;101687.81;6213457;28;20194;-71
2021/05/24 11:15:49;;;;;;;6.85;1.90;;;;;;;15.30;63.45;101678.09;6212881;28;20214;-70
2021/05/24 11:19:05;;;;;;;3.38;2.08;;;;;;;15.11;62.54;101684.63;6213840;28;20224;-70
2021/05/24 11:22:34;;;;;;;1.80;1.70;;;;;;;15.04;63.27;101691.03;6213577;28;20233;-70
2021/05/24 11:25:54;;;;;;;2.17;1.83;;;;;;;15.09;62.92;101689.50;6205915;28;20497;-70
2021/05/24 11:29:07;;;;;;;3.58;2.10;;;;;;;14.87;64.17;101700.91;6212256;28;20474;-70
2021/05/24 11:32:23;;;;;;;1.80;1.70;;;;;;;15.05;64.64;101709.19;6212230;28;20520;-70
2021/05/24 11:35:27;;;;;;;1.70;1.70;;;;;;;14.80;65.18;101705.63;6213197;28;20242;-70
2021/05/24 11:38:31;;;;;;;1.85;1.70;;;;;;;14.69;65.69;101709.06;6212224;28;20197;-71
2021/05/24 11:41:43;;;;;;;2.13;2.00;;;;;;;14.39;66.85;101721.75;6213217;28;20186;-71
2021/05/24 11:44:49;;;;;;;1.77;1.77;;;;;;;14.48;66.39;101728.69;6195523;28;20206;-71
2021/05/24 11:47:56;;;;;;;2.20;2.10;;;;;;;14.47;66.93;101732.47;6213432;28;20187;-72
2021/05/24 11:51:03;;;;;;;5.25;2.28;;;;;;;14.47;66.85;101735.22;6213228;28;20218;-71
2021/05/24 11:54:09;;;;;;;2.17;2.08;;;;;;;14.47;67.34;101737.97;6212239;28;20284;-71
2021/05/24 11:57:14;;;;;;;2.20;2.10;;;;;;;14.43;67.70;101736.75;6210953;28;20423;-71
2021/05/24 12:00:20;;;;;;;2.00;2.00;;;;;;;14.53;67.18;101750.84;6212208;28;20186;-71
2021/05/24 12:03:26;;;;;;;1.90;1.90;;;;;;;14.42;67.46;101746.03;6213130;28;20265;-71
2021/05/24 12:06:40;;;;;;;2.95;2.10;;;;;;;14.43;67.32;101747.72;6204455;28;20495;-71
2021/05/24 12:09:46;;;;;;;2.20;2.10;;;;;;;14.25;68.86;101750.31;6211895;28;20529;-71
2021/05/24 12:12:51;;;;;;;2.17;2.10;;;;;;;14.30;69.97;101747.75;6213253;28;20186;-71
2021/05/24 12:16:03;;;;;;;5.13;2.28;;;;;;;14.35;69.47;101761.72;6213051;28;20214;-71
2021/05/24 12:19:09;;;;;;;2.40;2.30;;;;;;;14.16;70.93;101766.19;6212013;28;20532;-71
2021/05/24 12:22:15;;;;;;;2.45;2.45;;;;;;;14.23;69.80;101768.88;6212839;28;20233;-71
2021/05/24 12:25:19;;;;;;;3.47;2.50;;;;;;;14.31;69.64;101774.16;6211956;28;20261;-71
2021/05/24 12:28:26;;;;;;;2.85;2.65;;;;;;;14.13;70.56;101768.53;6216349;28;20194;-71
2021/05/24 12:31:31;;;;;;;2.60;2.40;;;;;;;14.20;70.27;101769.34;6215886;28;20481;-71
2021/05/24 12:34:38;;;;;;;2.63;2.53;;;;;;;14.25;69.76;101770.34;6216977;28;20217;-71
2021/05/24 12:37:49;;;;;;;2.80;2.60;;;;;;;14.27;70.06;101781.97;6215841;28;20567;-71
2021/05/24 12:40:54;;;;;;;2.33;2.30;;;;;;;13.94;72.28;101758.50;6216524;28;20210;-71
2021/05/24 12:44:02;;;;;;;2.30;2.30;;;;;;;14.10;71.71;101778.03;6215621;28;20226;-71
2021/05/24 12:47:14;;;;;;;2.50;2.50;;;;;;;14.10;72.70;101774.44;6215628;28;20477;-71
2021/05/24 12:50:19;;;;;;;2.55;2.45;;;;;;;14.19;72.35;101778.63;6216586;28;20187;-71
2021/05/24 12:53:24;;;;;;;3.13;2.85;;;;;;;14.11;73.15;101787.13;6215537;28;20560;-70
2021/05/24 12:56:37;;;;;;;2.60;2.50;;;;;;;14.08;73.19;101782.91;6216838;28;20261;-70
2021/05/24 12:59:48;;;;;;;2.80;2.75;;;;;;;14.24;72.61;101781.56;6216660;28;20249;-71
2021/05/24 13:02:53;;;;;;;3.35;3.00;;;;;;;14.22;73.15;101795.53;6216143;28;20258;-70
2021/05/24 13:06:03;;;;;;;3.00;2.80;;;;;;;14.18;72.83;101788.75;6215732;28;20222;-70
2021/05/24 13:09:18;;;;;;;2.83;2.72;;;;;;;14.11;73.19;101793.44;6215027;28;20470;-70
2021/05/24 13:12:24;;;;;;;2.95;2.75;;;;;;;14.11;74.00;101798.09;6216141;28;20186;-70
2021/05/24 13:15:35;;;;;;;5.90;3.70;;;;;;;14.05;76.32;101793.47;6214950;28;20390;-70
2021/05/24 13:18:50;;;;;;;3.60;3.28;;;;;;;13.99;77.09;101794.34;6216337;28;20233;-70
2021/05/24 13:25:42;;;;;;;4.20;2.95;;;;;;;14.10;76.31;101790.91;6198013;28;20489;-71
2021/05/24 13:32:24;;;;;;;3.40;3.20;;;;;;;13.98;76.39;101792.66;6207983;28;20210;-70
2021/05/24 13:35:30;;;;;;;4.50;3.80;;;;;;;13.99;77.17;101800.69;6207462;28;20187;-70
2021/05/24 13:38:33;;;;;;;9.73;3.70;;;;;;;14.01;78.32;101803.19;6214059;28;20191;-70
2021/05/24 13:41:38;;;;;;;4.68;4.28;;;;;;;14.02;78.59;101811.19;6214403;28;20374;-70
2021/05/24 13:44:43;;;;;;;4.93;4.20;;;;;;;14.05;79.47;101804.44;6215664;28;20190;-70
2021/05/24 13:47:48;;;;;;;4.78;4.32;;;;;;;13.94;81.86;101805.97;6215268;28;20237;-70
2021/05/24 13:50:52;;;;;;;6.05;4.80;;;;;;;13.94;81.04;101808.72;6214211;28;20386;-70
2021/05/24 13:53:56;;;;;;;7.80;4.63;;;;;;;13.99;81.66;101816.28;6215475;28;20190;-70
2021/05/24 13:57:00;;;;;;;6.20;4.78;;;;;;;14.06;81.74;101822.59;6214226;28;20213;-70
2021/05/24 14:00:05;;;;;;;6.15;4.50;;;;;;;13.89;80.41;101799.44;6213706;28;20186;-70
2021/05/24 14:03:22;;;;;;;4.68;4.38;;;;;;;14.02;81.59;101815.88;6214728;28;20241;-70
2021/05/24 14:06:25;;;;;;;4.95;4.55;;;;;;;13.99;81.68;101817.16;6197825;28;20241;-71
2021/05/24 14:09:29;;;;;;;5.80;5.05;;;;;;;13.85;82.40;101820.13;6213387;28;20209;-71
2021/05/24 14:12:33;;;;;;;6.63;5.22;;;;;;;13.76;82.79;101823.09;6214678;28;20225;-70
2021/05/24 14:15:37;;;;;;;5.82;4.55;;;;;;;13.85;82.94;101820.13;6213624;28;20362;-70
2021/05/24 14:18:42;;;;;;;5.20;4.72;;;;;;;13.94;83.61;101824.34;6214168;28;20297;-70
2021/05/24 14:21:46;;;;;;;8.05;4.65;;;;;;;13.80;83.31;101824.34;6213509;28;20481;-69
2021/05/24 14:24:50;;;;;;;5.15;4.50;;;;;;;13.89;82.94;101826.88;6214718;28;20222;-69
2021/05/24 14:27:53;;;;;;;7.25;4.68;;;;;;;13.87;82.94;101831.75;6213258;28;20198;-69
2021/05/24 14:31:00;;;;;;;6.68;4.82;;;;;;;13.73;82.00;101844.63;6214570;28;20186;-69
2021/05/24 14:34:05;;;;;;;10.70;5.25;;;;;;;13.79;81.68;101844.59;6212550;28;20241;-69
2021/05/24 14:37:09;;;;;;;5.93;5.43;;;;;;;13.77;81.74;101848.63;6213929;28;20241;-70